sensor_id;sensor_type;location;lat;lon;timestamp;P1;durP1;ratioP1;P2;durP2;ratioP2
14681;SDS011;7429;52.498;13.480;2024-03-07T00:02:09;139.83;;;49.93;;
14681;SDS011;7429;52.498;13.480;2024-03-07T00:05:12;138.70;;;49.40;;
14681;SDS011;7429;52.498;13.480;2024-03-07T00:08:19;137.00;;;48.30;;
14681;SDS011;7429;52.498;13.480;2024-03-07T00:11:23;138.83;;;51.90;;
14681;SDS011;7429;52.498;13.480;2024-03-07T00:14:26;148.07;;;53.43;;
14681;SDS011;7429;52.498;13.480;2024-03-07T00:17:31;146.57;;;49.57;;
14681;SDS011;7429;52.498;13.480;2024-03-07T00:20:36;123.63;;;47.30;;
14681;SDS011;7429;52.498;13.480;2024-03-07T00:23:42;125.17;;;47.40;;
14681;SDS011;7429;52.498;13.480;2024-03-07T00:26:50;132.33;;;47.47;;
14681;SDS011;7429;52.498;13.480;2024-03-07T00:29:54;115.53;;;46.93;;
14681;SDS011;7429;52.498;13.480;2024-03-07T00:33:01;125.53;;;46.40;;
14681;SDS011;7429;52.498;13.480;2024-03-07T00:36:06;138.77;;;49.20;;
14681;SDS011;7429;52.498;13.480;2024-03-07T00:39:11;123.77;;;46.03;;
14681;SDS011;7429;52.498;13.480;2024-03-07T00:42:14;120.03;;;46.77;;
14681;SDS011;7429;52.498;13.480;2024-03-07T00:45:18;142.60;;;46.27;;
14681;SDS011;7429;52.498;13.480;2024-03-07T00:48:21;127.40;;;45.23;;
14681;SDS011;7429;52.498;13.480;2024-03-07T00:51:26;144.03;;;48.27;;
14681;SDS011;7429;52.498;13.480;2024-03-07T00:54:34;128.33;;;47.23;;
14681;SDS011;7429;52.498;13.480;2024-03-07T00:57:37;113.17;;;44.87;;
14681;SDS011;7429;52.498;13.480;2024-03-07T01:00:40;117.57;;;45.67;;
14681;SDS011;7429;52.498;13.480;2024-03-07T01:03:46;131.13;;;46.53;;
14681;SDS011;7429;52.498;13.480;2024-03-07T01:06:49;122.10;;;44.83;;
14681;SDS011;7429;52.498;13.480;2024-03-07T01:09:56;128.03;;;46.60;;
14681;SDS011;7429;52.498;13.480;2024-03-07T01:13:02;126.50;;;44.93;;
14681;SDS011;7429;52.498;13.480;2024-03-07T01:16:09;131.83;;;46.03;;
14681;SDS011;7429;52.498;13.480;2024-03-07T01:19:12;126.53;;;45.47;;
14681;SDS011;7429;52.498;13.480;2024-03-07T01:22:18;134.03;;;49.67;;
14681;SDS011;7429;52.498;13.480;2024-03-07T01:25:22;124.23;;;46.33;;
14681;SDS011;7429;52.498;13.480;2024-03-07T01:28:26;131.30;;;45.07;;
14681;SDS011;7429;52.498;13.480;2024-03-07T01:31:31;130.67;;;46.40;;
14681;SDS011;7429;52.498;13.480;2024-03-07T01:34:35;117.37;;;45.93;;
14681;SDS011;7429;52.498;13.480;2024-03-07T01:37:40;110.77;;;43.27;;
14681;SDS011;7429;52.498;13.480;2024-03-07T01:40:53;114.20;;;45.20;;
14681;SDS011;7429;52.498;13.480;2024-03-07T01:43:59;111.03;;;45.50;;
14681;SDS011;7429;52.498;13.480;2024-03-07T01:47:06;118.33;;;44.80;;
14681;SDS011;7429;52.498;13.480;2024-03-07T01:50:12;104.67;;;43.53;;
14681;SDS011;7429;52.498;13.480;2024-03-07T01:53:19;108.80;;;44.83;;
14681;SDS011;7429;52.498;13.480;2024-03-07T01:56:26;110.10;;;42.47;;
14681;SDS011;7429;52.498;13.480;2024-03-07T01:59:30;107.83;;;40.77;;
14681;SDS011;7429;52.498;13.480;2024-03-07T02:02:35;111.60;;;42.33;;
14681;SDS011;7429;52.498;13.480;2024-03-07T02:05:40;103.70;;;43.57;;
14681;SDS011;7429;52.498;13.480;2024-03-07T02:08:46;94.17;;;40.73;;
14681;SDS011;7429;52.498;13.480;2024-03-07T02:11:51;93.93;;;40.13;;
14681;SDS011;7429;52.498;13.480;2024-03-07T02:14:54;119.33;;;41.23;;
14681;SDS011;7429;52.498;13.480;2024-03-07T02:17:58;108.27;;;43.00;;
14681;SDS011;7429;52.498;13.480;2024-03-07T02:21:06;101.63;;;40.20;;
14681;SDS011;7429;52.498;13.480;2024-03-07T02:24:10;109.37;;;41.37;;
14681;SDS011;7429;52.498;13.480;2024-03-07T02:27:14;107.33;;;40.60;;
14681;SDS011;7429;52.498;13.480;2024-03-07T02:30:20;106.43;;;42.37;;
14681;SDS011;7429;52.498;13.480;2024-03-07T02:33:26;113.17;;;42.10;;
14681;SDS011;7429;52.498;13.480;2024-03-07T02:36:38;110.27;;;40.80;;
14681;SDS011;7429;52.498;13.480;2024-03-07T02:39:43;118.80;;;44.97;;
14681;SDS011;7429;52.498;13.480;2024-03-07T02:42:46;108.20;;;42.60;;
14681;SDS011;7429;52.498;13.480;2024-03-07T02:45:49;98.10;;;41.33;;
14681;SDS011;7429;52.498;13.480;2024-03-07T02:48:53;110.97;;;42.20;;
14681;SDS011;7429;52.498;13.480;2024-03-07T02:51:57;110.30;;;42.03;;
14681;SDS011;7429;52.498;13.480;2024-03-07T02:55:00;108.63;;;41.30;;
14681;SDS011;7429;52.498;13.480;2024-03-07T02:58:05;104.80;;;40.90;;
14681;SDS011;7429;52.498;13.480;2024-03-07T03:01:08;108.40;;;39.60;;
14681;SDS011;7429;52.498;13.480;2024-03-07T03:04:12;107.57;;;42.53;;
14681;SDS011;7429;52.498;13.480;2024-03-07T03:07:17;98.37;;;41.70;;
14681;SDS011;7429;52.498;13.480;2024-03-07T03:10:20;98.23;;;40.03;;
14681;SDS011;7429;52.498;13.480;2024-03-07T03:13:28;94.83;;;39.10;;
14681;SDS011;7429;52.498;13.480;2024-03-07T03:16:31;99.43;;;41.83;;
14681;SDS011;7429;52.498;13.480;2024-03-07T03:19:48;91.83;;;39.13;;
14681;SDS011;7429;52.498;13.480;2024-03-07T03:22:54;93.93;;;38.97;;
14681;SDS011;7429;52.498;13.480;2024-03-07T03:26:17;86.43;;;40.93;;
14681;SDS011;7429;52.498;13.480;2024-03-07T03:29:21;85.20;;;37.47;;
14681;SDS011;7429;52.498;13.480;2024-03-07T03:32:24;83.23;;;38.53;;
14681;SDS011;7429;52.498;13.480;2024-03-07T03:35:28;83.10;;;37.33;;
14681;SDS011;7429;52.498;13.480;2024-03-07T03:38:34;85.43;;;38.10;;
14681;SDS011;7429;52.498;13.480;2024-03-07T03:41:41;77.60;;;38.33;;
14681;SDS011;7429;52.498;13.480;2024-03-07T03:44:44;89.63;;;36.77;;
14681;SDS011;7429;52.498;13.480;2024-03-07T03:47:48;77.63;;;37.17;;
14681;SDS011;7429;52.498;13.480;2024-03-07T03:50:54;81.40;;;39.93;;
14681;SDS011;7429;52.498;13.480;2024-03-07T03:53:59;77.80;;;36.43;;
14681;SDS011;7429;52.498;13.480;2024-03-07T03:57:02;70.27;;;34.73;;
14681;SDS011;7429;52.498;13.480;2024-03-07T04:00:07;66.03;;;34.57;;
14681;SDS011;7429;52.498;13.480;2024-03-07T04:03:14;71.93;;;36.40;;
14681;SDS011;7429;52.498;13.480;2024-03-07T04:06:18;78.97;;;35.90;;
14681;SDS011;7429;52.498;13.480;2024-03-07T04:09:25;69.10;;;34.50;;
14681;SDS011;7429;52.498;13.480;2024-03-07T04:12:30;72.57;;;34.60;;
14681;SDS011;7429;52.498;13.480;2024-03-07T04:15:33;62.20;;;33.87;;
14681;SDS011;7429;52.498;13.480;2024-03-07T04:18:38;65.77;;;32.17;;
14681;SDS011;7429;52.498;13.480;2024-03-07T04:21:41;71.73;;;35.27;;
14681;SDS011;7429;52.498;13.480;2024-03-07T04:24:47;62.33;;;34.53;;
14681;SDS011;7429;52.498;13.480;2024-03-07T04:27:55;59.80;;;33.97;;
14681;SDS011;7429;52.498;13.480;2024-03-07T04:31:02;58.90;;;33.67;;
14681;SDS011;7429;52.498;13.480;2024-03-07T04:34:06;69.93;;;34.63;;
14681;SDS011;7429;52.498;13.480;2024-03-07T04:37:09;67.77;;;32.57;;
14681;SDS011;7429;52.498;13.480;2024-03-07T04:40:16;59.03;;;32.10;;
14681;SDS011;7429;52.498;13.480;2024-03-07T04:43:20;66.47;;;35.83;;
14681;SDS011;7429;52.498;13.480;2024-03-07T04:46:23;67.73;;;34.93;;
14681;SDS011;7429;52.498;13.480;2024-03-07T04:49:27;74.00;;;36.17;;
14681;SDS011;7429;52.498;13.480;2024-03-07T04:52:32;64.00;;;33.60;;
14681;SDS011;7429;52.498;13.480;2024-03-07T04:55:37;60.60;;;34.03;;
14681;SDS011;7429;52.498;13.480;2024-03-07T04:58:43;65.10;;;32.50;;
14681;SDS011;7429;52.498;13.480;2024-03-07T05:01:48;64.63;;;33.80;;
14681;SDS011;7429;52.498;13.480;2024-03-07T05:04:52;63.10;;;34.53;;
14681;SDS011;7429;52.498;13.480;2024-03-07T05:07:57;64.73;;;33.40;;
14681;SDS011;7429;52.498;13.480;2024-03-07T05:11:04;66.70;;;34.70;;
14681;SDS011;7429;52.498;13.480;2024-03-07T05:14:10;59.40;;;34.00;;
14681;SDS011;7429;52.498;13.480;2024-03-07T05:17:14;62.67;;;33.47;;
14681;SDS011;7429;52.498;13.480;2024-03-07T05:20:17;61.97;;;34.77;;
14681;SDS011;7429;52.498;13.480;2024-03-07T05:23:21;67.23;;;34.03;;
14681;SDS011;7429;52.498;13.480;2024-03-07T05:26:26;70.73;;;34.70;;
14681;SDS011;7429;52.498;13.480;2024-03-07T05:29:35;62.93;;;34.30;;
14681;SDS011;7429;52.498;13.480;2024-03-07T05:32:38;73.23;;;35.60;;
14681;SDS011;7429;52.498;13.480;2024-03-07T05:35:42;59.93;;;34.23;;
14681;SDS011;7429;52.498;13.480;2024-03-07T05:38:48;72.47;;;34.60;;
14681;SDS011;7429;52.498;13.480;2024-03-07T05:41:55;65.37;;;32.90;;
14681;SDS011;7429;52.498;13.480;2024-03-07T05:45:00;66.97;;;34.10;;
14681;SDS011;7429;52.498;13.480;2024-03-07T05:48:14;62.27;;;33.27;;
14681;SDS011;7429;52.498;13.480;2024-03-07T05:51:20;62.17;;;32.00;;
14681;SDS011;7429;52.498;13.480;2024-03-07T05:54:25;58.20;;;30.77;;
14681;SDS011;7429;52.498;13.480;2024-03-07T05:57:32;57.77;;;31.83;;
14681;SDS011;7429;52.498;13.480;2024-03-07T06:04:09;52.50;;;29.00;;
14681;SDS011;7429;52.498;13.480;2024-03-07T06:07:22;53.93;;;29.73;;
14681;SDS011;7429;52.498;13.480;2024-03-07T06:10:33;61.43;;;31.03;;
14681;SDS011;7429;52.498;13.480;2024-03-07T06:13:41;48.17;;;29.47;;
14681;SDS011;7429;52.498;13.480;2024-03-07T06:16:50;53.87;;;31.17;;
14681;SDS011;7429;52.498;13.480;2024-03-07T06:19:56;52.60;;;29.70;;
14681;SDS011;7429;52.498;13.480;2024-03-07T06:23:05;53.17;;;29.17;;
14681;SDS011;7429;52.498;13.480;2024-03-07T06:26:08;50.73;;;27.97;;
14681;SDS011;7429;52.498;13.480;2024-03-07T06:29:19;50.27;;;28.80;;
14681;SDS011;7429;52.498;13.480;2024-03-07T06:32:26;46.07;;;26.13;;
14681;SDS011;7429;52.498;13.480;2024-03-07T06:35:32;51.67;;;26.87;;
14681;SDS011;7429;52.498;13.480;2024-03-07T06:38:38;43.57;;;25.83;;
14681;SDS011;7429;52.498;13.480;2024-03-07T06:41:42;42.30;;;24.37;;
14681;SDS011;7429;52.498;13.480;2024-03-07T06:44:55;45.23;;;25.60;;
14681;SDS011;7429;52.498;13.480;2024-03-07T06:48:12;47.70;;;26.40;;
14681;SDS011;7429;52.498;13.480;2024-03-07T06:51:19;45.03;;;25.80;;
14681;SDS011;7429;52.498;13.480;2024-03-07T06:54:26;39.17;;;24.03;;
14681;SDS011;7429;52.498;13.480;2024-03-07T06:57:29;42.97;;;25.87;;
14681;SDS011;7429;52.498;13.480;2024-03-07T07:00:39;41.40;;;23.97;;
14681;SDS011;7429;52.498;13.480;2024-03-07T07:03:49;40.83;;;25.33;;
14681;SDS011;7429;52.498;13.480;2024-03-07T07:06:53;41.23;;;23.40;;
14681;SDS011;7429;52.498;13.480;2024-03-07T07:10:02;38.50;;;24.13;;
14681;SDS011;7429;52.498;13.480;2024-03-07T07:13:09;39.77;;;22.27;;
14681;SDS011;7429;52.498;13.480;2024-03-07T07:16:16;37.87;;;22.60;;
14681;SDS011;7429;52.498;13.480;2024-03-07T07:19:31;37.73;;;21.10;;
14681;SDS011;7429;52.498;13.480;2024-03-07T07:22:35;40.67;;;23.80;;
14681;SDS011;7429;52.498;13.480;2024-03-07T07:25:44;37.47;;;21.30;;
14681;SDS011;7429;52.498;13.480;2024-03-07T07:29:48;42.23;;;23.80;;
14681;SDS011;7429;52.498;13.480;2024-03-07T07:32:55;37.67;;;22.10;;
14681;SDS011;7429;52.498;13.480;2024-03-07T07:36:01;35.43;;;22.50;;
14681;SDS011;7429;52.498;13.480;2024-03-07T07:39:06;35.03;;;20.80;;
14681;SDS011;7429;52.498;13.480;2024-03-07T07:42:18;39.63;;;22.17;;
14681;SDS011;7429;52.498;13.480;2024-03-07T07:45:22;36.97;;;23.63;;
14681;SDS011;7429;52.498;13.480;2024-03-07T07:48:28;36.47;;;22.43;;
14681;SDS011;7429;52.498;13.480;2024-03-07T07:51:31;37.37;;;21.10;;
14681;SDS011;7429;52.498;13.480;2024-03-07T07:54:40;30.43;;;19.27;;
14681;SDS011;7429;52.498;13.480;2024-03-07T07:57:50;31.67;;;20.00;;
14681;SDS011;7429;52.498;13.480;2024-03-07T08:01:01;38.33;;;21.23;;
14681;SDS011;7429;52.498;13.480;2024-03-07T08:04:06;29.20;;;19.87;;
14681;SDS011;7429;52.498;13.480;2024-03-07T08:07:12;33.90;;;20.23;;
14681;SDS011;7429;52.498;13.480;2024-03-07T08:10:16;30.50;;;19.77;;
14681;SDS011;7429;52.498;13.480;2024-03-07T08:13:25;32.43;;;18.90;;
14681;SDS011;7429;52.498;13.480;2024-03-07T08:16:38;33.00;;;20.23;;
14681;SDS011;7429;52.498;13.480;2024-03-07T08:19:48;29.50;;;20.03;;
14681;SDS011;7429;52.498;13.480;2024-03-07T08:22:54;31.13;;;20.50;;
14681;SDS011;7429;52.498;13.480;2024-03-07T08:25:58;32.50;;;19.47;;
14681;SDS011;7429;52.498;13.480;2024-03-07T08:29:02;29.13;;;18.80;;
14681;SDS011;7429;52.498;13.480;2024-03-07T08:32:08;26.93;;;18.23;;
14681;SDS011;7429;52.498;13.480;2024-03-07T08:35:12;30.90;;;18.93;;
14681;SDS011;7429;52.498;13.480;2024-03-07T08:38:17;32.60;;;18.93;;
14681;SDS011;7429;52.498;13.480;2024-03-07T08:41:20;32.53;;;19.03;;
14681;SDS011;7429;52.498;13.480;2024-03-07T08:44:26;33.17;;;18.23;;
14681;SDS011;7429;52.498;13.480;2024-03-07T08:47:30;29.97;;;19.27;;
14681;SDS011;7429;52.498;13.480;2024-03-07T08:50:36;31.40;;;18.23;;
14681;SDS011;7429;52.498;13.480;2024-03-07T08:53:43;29.27;;;18.27;;
14681;SDS011;7429;52.498;13.480;2024-03-07T08:56:55;29.57;;;18.17;;
14681;SDS011;7429;52.498;13.480;2024-03-07T09:00:00;29.20;;;17.63;;
14681;SDS011;7429;52.498;13.480;2024-03-07T09:03:09;25.27;;;16.33;;
14681;SDS011;7429;52.498;13.480;2024-03-07T09:06:21;29.97;;;17.57;;
14681;SDS011;7429;52.498;13.480;2024-03-07T09:09:24;31.27;;;18.20;;
14681;SDS011;7429;52.498;13.480;2024-03-07T09:12:27;27.17;;;16.60;;
14681;SDS011;7429;52.498;13.480;2024-03-07T09:15:34;26.13;;;17.93;;
14681;SDS011;7429;52.498;13.480;2024-03-07T09:18:53;23.13;;;16.47;;
14681;SDS011;7429;52.498;13.480;2024-03-07T09:22:02;24.63;;;15.17;;
14681;SDS011;7429;52.498;13.480;2024-03-07T09:25:06;28.23;;;16.20;;
14681;SDS011;7429;52.498;13.480;2024-03-07T09:28:15;22.00;;;14.97;;
14681;SDS011;7429;52.498;13.480;2024-03-07T09:31:25;22.17;;;15.17;;
14681;SDS011;7429;52.498;13.480;2024-03-07T09:35:33;22.90;;;13.80;;
14681;SDS011;7429;52.498;13.480;2024-03-07T09:38:42;23.47;;;15.20;;
14681;SDS011;7429;52.498;13.480;2024-03-07T09:41:57;21.83;;;14.27;;
14681;SDS011;7429;52.498;13.480;2024-03-07T09:45:05;19.80;;;13.47;;
14681;SDS011;7429;52.498;13.480;2024-03-07T09:48:14;22.90;;;14.27;;
14681;SDS011;7429;52.498;13.480;2024-03-07T09:51:23;19.10;;;13.97;;
14681;SDS011;7429;52.498;13.480;2024-03-07T09:54:28;20.93;;;13.23;;
14681;SDS011;7429;52.498;13.480;2024-03-07T09:57:46;19.30;;;13.00;;
14681;SDS011;7429;52.498;13.480;2024-03-07T10:01:13;17.70;;;13.23;;
14681;SDS011;7429;52.498;13.480;2024-03-07T10:04:24;16.93;;;12.93;;
14681;SDS011;7429;52.498;13.480;2024-03-07T10:07:32;22.27;;;13.73;;
14681;SDS011;7429;52.498;13.480;2024-03-07T10:10:37;20.03;;;13.43;;
14681;SDS011;7429;52.498;13.480;2024-03-07T10:13:41;17.63;;;12.23;;
14681;SDS011;7429;52.498;13.480;2024-03-07T10:16:44;21.80;;;12.57;;
14681;SDS011;7429;52.498;13.480;2024-03-07T10:19:48;19.73;;;12.47;;
14681;SDS011;7429;52.498;13.480;2024-03-07T10:22:52;14.57;;;11.67;;
14681;SDS011;7429;52.498;13.480;2024-03-07T10:25:59;17.83;;;12.73;;
14681;SDS011;7429;52.498;13.480;2024-03-07T10:29:07;21.57;;;13.93;;
14681;SDS011;7429;52.498;13.480;2024-03-07T10:32:22;17.13;;;12.30;;
14681;SDS011;7429;52.498;13.480;2024-03-07T10:35:26;20.67;;;13.37;;
14681;SDS011;7429;52.498;13.480;2024-03-07T10:38:32;21.17;;;13.47;;
14681;SDS011;7429;52.498;13.480;2024-03-07T10:41:44;17.57;;;12.80;;
14681;SDS011;7429;52.498;13.480;2024-03-07T10:44:51;16.80;;;12.10;;
14681;SDS011;7429;52.498;13.480;2024-03-07T10:48:05;14.70;;;12.40;;
14681;SDS011;7429;52.498;13.480;2024-03-07T10:51:18;20.33;;;13.47;;
14681;SDS011;7429;52.498;13.480;2024-03-07T10:54:30;19.87;;;12.33;;
14681;SDS011;7429;52.498;13.480;2024-03-07T10:57:49;20.77;;;12.53;;
14681;SDS011;7429;52.498;13.480;2024-03-07T11:00:57;23.50;;;12.80;;
14681;SDS011;7429;52.498;13.480;2024-03-07T11:04:08;18.77;;;13.30;;
14681;SDS011;7429;52.498;13.480;2024-03-07T11:07:19;18.70;;;13.93;;
14681;SDS011;7429;52.498;13.480;2024-03-07T11:11:01;17.77;;;12.90;;
14681;SDS011;7429;52.498;13.480;2024-03-07T11:14:23;18.33;;;11.73;;
14681;SDS011;7429;52.498;13.480;2024-03-07T11:17:37;15.57;;;12.70;;
14681;SDS011;7429;52.498;13.480;2024-03-07T11:20:48;18.83;;;12.97;;
14681;SDS011;7429;52.498;13.480;2024-03-07T11:24:07;19.40;;;13.23;;
14681;SDS011;7429;52.498;13.480;2024-03-07T11:27:19;18.93;;;13.27;;
14681;SDS011;7429;52.498;13.480;2024-03-07T11:31:31;18.00;;;13.93;;
14681;SDS011;7429;52.498;13.480;2024-03-07T11:38:11;20.07;;;14.00;;
14681;SDS011;7429;52.498;13.480;2024-03-07T11:41:19;21.40;;;13.80;;
14681;SDS011;7429;52.498;13.480;2024-03-07T11:45:11;18.17;;;13.73;;
14681;SDS011;7429;52.498;13.480;2024-03-07T11:52:31;20.30;;;14.30;;
14681;SDS011;7429;52.498;13.480;2024-03-07T11:56:35;21.60;;;13.63;;
14681;SDS011;7429;52.498;13.480;2024-03-07T11:59:45;22.33;;;13.83;;
14681;SDS011;7429;52.498;13.480;2024-03-07T12:03:13;23.80;;;14.47;;
14681;SDS011;7429;52.498;13.480;2024-03-07T12:06:29;22.30;;;14.50;;
14681;SDS011;7429;52.498;13.480;2024-03-07T12:09:51;18.90;;;13.53;;
14681;SDS011;7429;52.498;13.480;2024-03-07T12:13:28;17.83;;;13.47;;
14681;SDS011;7429;52.498;13.480;2024-03-07T12:17:10;20.80;;;14.83;;
14681;SDS011;7429;52.498;13.480;2024-03-07T12:20:26;20.33;;;13.03;;
14681;SDS011;7429;52.498;13.480;2024-03-07T12:23:39;19.43;;;13.53;;
14681;SDS011;7429;52.498;13.480;2024-03-07T12:26:44;18.43;;;13.60;;
14681;SDS011;7429;52.498;13.480;2024-03-07T12:30:20;20.77;;;14.83;;
14681;SDS011;7429;52.498;13.480;2024-03-07T12:33:59;18.47;;;14.33;;
14681;SDS011;7429;52.498;13.480;2024-03-07T12:37:18;24.27;;;15.57;;
14681;SDS011;7429;52.498;13.480;2024-03-07T12:40:33;21.77;;;16.17;;
14681;SDS011;7429;52.498;13.480;2024-03-07T12:44:03;23.03;;;15.10;;
14681;SDS011;7429;52.498;13.480;2024-03-07T12:47:25;21.67;;;15.23;;
14681;SDS011;7429;52.498;13.480;2024-03-07T12:50:58;27.23;;;16.20;;
14681;SDS011;7429;52.498;13.480;2024-03-07T12:54:56;19.50;;;13.93;;
14681;SDS011;7429;52.498;13.480;2024-03-07T12:58:19;20.07;;;14.30;;
14681;SDS011;7429;52.498;13.480;2024-03-07T13:01:37;25.07;;;16.50;;
14681;SDS011;7429;52.498;13.480;2024-03-07T13:04:47;23.63;;;16.20;;
14681;SDS011;7429;52.498;13.480;2024-03-07T13:08:25;19.80;;;14.40;;
14681;SDS011;7429;52.498;13.480;2024-03-07T13:12:03;17.90;;;13.47;;
14681;SDS011;7429;52.498;13.480;2024-03-07T13:15:22;21.40;;;15.10;;
14681;SDS011;7429;52.498;13.480;2024-03-07T13:18:28;18.87;;;13.53;;
14681;SDS011;7429;52.498;13.480;2024-03-07T13:21:37;17.27;;;12.77;;
14681;SDS011;7429;52.498;13.480;2024-03-07T13:25:07;16.80;;;12.40;;
14681;SDS011;7429;52.498;13.480;2024-03-07T13:28:30;19.17;;;13.27;;
14681;SDS011;7429;52.498;13.480;2024-03-07T13:31:45;22.73;;;14.70;;
14681;SDS011;7429;52.498;13.480;2024-03-07T13:34:58;17.90;;;13.83;;
14681;SDS011;7429;52.498;13.480;2024-03-07T13:38:10;23.10;;;14.87;;
14681;SDS011;7429;52.498;13.480;2024-03-07T13:41:26;19.97;;;14.17;;
14681;SDS011;7429;52.498;13.480;2024-03-07T13:44:38;19.57;;;14.20;;
14681;SDS011;7429;52.498;13.480;2024-03-07T13:47:46;20.17;;;13.97;;
14681;SDS011;7429;52.498;13.480;2024-03-07T13:51:03;19.90;;;13.37;;
14681;SDS011;7429;52.498;13.480;2024-03-07T13:54:10;18.47;;;14.20;;
14681;SDS011;7429;52.498;13.480;2024-03-07T13:57:34;19.80;;;13.80;;
14681;SDS011;7429;52.498;13.480;2024-03-07T14:04:38;25.57;;;15.07;;
14681;SDS011;7429;52.498;13.480;2024-03-07T14:08:55;20.67;;;15.57;;
14681;SDS011;7429;52.498;13.480;2024-03-07T14:12:54;18.83;;;13.60;;
14681;SDS011;7429;52.498;13.480;2024-03-07T14:16:21;24.90;;;15.30;;
14681;SDS011;7429;52.498;13.480;2024-03-07T14:20:36;21.67;;;14.90;;
14681;SDS011;7429;52.498;13.480;2024-03-07T14:28:03;21.40;;;15.10;;
14681;SDS011;7429;52.498;13.480;2024-03-07T14:31:19;18.90;;;13.73;;
14681;SDS011;7429;52.498;13.480;2024-03-07T14:34:32;21.93;;;15.07;;
14681;SDS011;7429;52.498;13.480;2024-03-07T14:41:51;21.53;;;15.27;;
14681;SDS011;7429;52.498;13.480;2024-03-07T14:45:03;24.83;;;15.83;;
14681;SDS011;7429;52.498;13.480;2024-03-07T14:48:16;21.43;;;15.17;;
14681;SDS011;7429;52.498;13.480;2024-03-07T14:51:25;21.67;;;14.93;;
14681;SDS011;7429;52.498;13.480;2024-03-07T14:54:37;24.23;;;15.50;;
14681;SDS011;7429;52.498;13.480;2024-03-07T14:57:51;23.47;;;15.33;;
14681;SDS011;7429;52.498;13.480;2024-03-07T15:01:00;25.80;;;15.13;;
14681;SDS011;7429;52.498;13.480;2024-03-07T15:04:04;22.93;;;15.80;;
14681;SDS011;7429;52.498;13.480;2024-03-07T15:07:18;20.50;;;14.50;;
14681;SDS011;7429;52.498;13.480;2024-03-07T15:10:37;22.03;;;14.47;;
14681;SDS011;7429;52.498;13.480;2024-03-07T15:14:16;19.87;;;14.33;;
14681;SDS011;7429;52.498;13.480;2024-03-07T15:17:48;23.20;;;15.30;;
14681;SDS011;7429;52.498;13.480;2024-03-07T15:25:27;22.63;;;14.40;;
14681;SDS011;7429;52.498;13.480;2024-03-07T15:29:42;21.57;;;15.03;;
14681;SDS011;7429;52.498;13.480;2024-03-07T15:32:55;19.27;;;14.50;;
14681;SDS011;7429;52.498;13.480;2024-03-07T15:36:10;23.30;;;14.30;;
14681;SDS011;7429;52.498;13.480;2024-03-07T15:39:45;21.80;;;15.37;;
14681;SDS011;7429;52.498;13.480;2024-03-07T15:42:51;22.70;;;13.37;;
14681;SDS011;7429;52.498;13.480;2024-03-07T15:46:10;19.70;;;12.67;;
14681;SDS011;7429;52.498;13.480;2024-03-07T15:49:29;21.03;;;13.47;;
14681;SDS011;7429;52.498;13.480;2024-03-07T15:52:39;23.17;;;13.20;;
14681;SDS011;7429;52.498;13.480;2024-03-07T15:55:53;21.17;;;14.00;;
14681;SDS011;7429;52.498;13.480;2024-03-07T16:00:01;20.67;;;14.30;;
14681;SDS011;7429;52.498;13.480;2024-03-07T16:04:08;21.90;;;13.73;;
14681;SDS011;7429;52.498;13.480;2024-03-07T16:07:33;24.03;;;14.03;;
14681;SDS011;7429;52.498;13.480;2024-03-07T16:11:01;21.17;;;13.53;;
14681;SDS011;7429;52.498;13.480;2024-03-07T16:14:25;21.33;;;15.13;;
14681;SDS011;7429;52.498;13.480;2024-03-07T16:17:42;23.50;;;14.20;;
14681;SDS011;7429;52.498;13.480;2024-03-07T16:20:49;23.03;;;14.77;;
14681;SDS011;7429;52.498;13.480;2024-03-07T16:24:02;19.10;;;14.57;;
14681;SDS011;7429;52.498;13.480;2024-03-07T16:27:10;24.57;;;15.20;;
14681;SDS011;7429;52.498;13.480;2024-03-07T16:30:27;18.83;;;14.47;;
14681;SDS011;7429;52.498;13.480;2024-03-07T16:34:21;23.37;;;13.93;;
14681;SDS011;7429;52.498;13.480;2024-03-07T16:38:53;22.47;;;14.67;;
14681;SDS011;7429;52.498;13.480;2024-03-07T16:42:38;22.07;;;14.83;;
14681;SDS011;7429;52.498;13.480;2024-03-07T16:56:24;20.87;;;13.87;;
14681;SDS011;7429;52.498;13.480;2024-03-07T17:00:30;23.43;;;14.67;;
14681;SDS011;7429;52.498;13.480;2024-03-07T17:10:07;23.97;;;14.90;;
14681;SDS011;7429;52.498;13.480;2024-03-07T17:38:59;23.20;;;15.33;;
14681;SDS011;7429;52.498;13.480;2024-03-07T17:42:18;25.67;;;15.67;;
14681;SDS011;7429;52.498;13.480;2024-03-07T17:45:44;25.10;;;14.97;;
14681;SDS011;7429;52.498;13.480;2024-03-07T17:48:52;22.97;;;14.23;;
14681;SDS011;7429;52.498;13.480;2024-03-07T17:55:23;26.70;;;16.77;;
14681;SDS011;7429;52.498;13.480;2024-03-07T17:58:30;24.87;;;16.43;;
14681;SDS011;7429;52.498;13.480;2024-03-07T18:01:42;24.87;;;15.47;;
14681;SDS011;7429;52.498;13.480;2024-03-07T18:04:53;26.97;;;17.03;;
14681;SDS011;7429;52.498;13.480;2024-03-07T18:08:02;24.83;;;17.00;;
14681;SDS011;7429;52.498;13.480;2024-03-07T18:11:30;27.40;;;16.07;;
14681;SDS011;7429;52.498;13.480;2024-03-07T18:14:45;29.67;;;17.20;;
14681;SDS011;7429;52.498;13.480;2024-03-07T18:18:24;25.97;;;16.27;;
14681;SDS011;7429;52.498;13.480;2024-03-07T18:25:50;30.03;;;17.13;;
14681;SDS011;7429;52.498;13.480;2024-03-07T18:29:16;25.53;;;15.30;;
14681;SDS011;7429;52.498;13.480;2024-03-07T18:32:37;32.90;;;17.23;;
14681;SDS011;7429;52.498;13.480;2024-03-07T18:35:51;28.23;;;15.47;;
14681;SDS011;7429;52.498;13.480;2024-03-07T18:39:19;30.50;;;17.97;;
14681;SDS011;7429;52.498;13.480;2024-03-07T18:42:28;27.27;;;16.73;;
14681;SDS011;7429;52.498;13.480;2024-03-07T18:45:51;22.47;;;15.07;;
14681;SDS011;7429;52.498;13.480;2024-03-07T18:49:15;24.50;;;15.53;;
14681;SDS011;7429;52.498;13.480;2024-03-07T18:52:33;26.63;;;15.50;;
14681;SDS011;7429;52.498;13.480;2024-03-07T18:56:02;28.43;;;17.20;;
14681;SDS011;7429;52.498;13.480;2024-03-07T18:59:14;28.57;;;17.00;;
14681;SDS011;7429;52.498;13.480;2024-03-07T19:02:29;25.27;;;17.07;;
14681;SDS011;7429;52.498;13.480;2024-03-07T19:05:36;26.03;;;16.13;;
14681;SDS011;7429;52.498;13.480;2024-03-07T19:09:04;32.80;;;17.10;;
14681;SDS011;7429;52.498;13.480;2024-03-07T19:12:38;30.70;;;17.70;;
14681;SDS011;7429;52.498;13.480;2024-03-07T19:16:00;34.80;;;18.20;;
14681;SDS011;7429;52.498;13.480;2024-03-07T19:19:42;29.30;;;17.30;;
14681;SDS011;7429;52.498;13.480;2024-03-07T20:52:08;29.83;;;17.83;;
14681;SDS011;7429;52.498;13.480;2024-03-07T21:09:48;30.47;;;17.90;;
14681;SDS011;7429;52.498;13.480;2024-03-07T21:14:15;31.40;;;18.60;;
14681;SDS011;7429;52.498;13.480;2024-03-07T21:18:35;29.63;;;18.50;;
14681;SDS011;7429;52.498;13.480;2024-03-07T21:22:27;33.27;;;19.87;;
14681;SDS011;7429;52.498;13.480;2024-03-07T21:30:24;33.07;;;19.23;;
14681;SDS011;7429;52.498;13.480;2024-03-07T21:34:28;27.90;;;17.77;;
14681;SDS011;7429;52.498;13.480;2024-03-07T21:38:35;31.17;;;18.53;;
14681;SDS011;7429;52.498;13.480;2024-03-07T21:42:34;30.30;;;18.23;;
14681;SDS011;7429;52.498;13.480;2024-03-07T21:47:02;31.53;;;19.50;;
14681;SDS011;7429;52.498;13.480;2024-03-07T21:50:18;32.10;;;18.20;;
14681;SDS011;7429;52.498;13.480;2024-03-07T21:53:29;31.03;;;18.23;;
14681;SDS011;7429;52.498;13.480;2024-03-07T21:56:33;29.00;;;17.07;;
14681;SDS011;7429;52.498;13.480;2024-03-07T22:00:06;30.53;;;18.37;;